createdAt,value
2017-04-25T00:00:46.458Z,67.88
2017-04-25T00:02:00.629Z,67.69
2017-04-25T00:03:15.724Z,68.27
2017-04-25T00:04:30.005Z,68.36
2017-04-25T00:05:46.205Z,68.36
2017-04-25T00:07:00.692Z,68.17
2017-04-25T00:08:15.667Z,68.93
2017-04-25T00:09:30.818Z,68.65
2017-04-25T00:10:44.986Z,69.41
2017-04-25T00:12:00.291Z,69.21
2017-04-25T00:13:14.683Z,68.74
2017-04-25T00:14:30.362Z,68.84
2017-04-25T00:15:46.321Z,68.36
2017-04-25T00:17:00.835Z,68.36
2017-04-25T00:18:15.406Z,68.07
2017-04-25T00:19:29.831Z,68.74
2017-04-25T00:20:44.188Z,69.12
2017-04-25T00:21:59.421Z,69.6
2017-04-25T00:23:15.128Z,69.79
2017-04-25T00:24:30.671Z,69.88
2017-04-25T00:25:45.846Z,69.79
2017-04-25T00:27:01.141Z,70.26
2017-04-25T00:28:17.858Z,70.23
2017-04-25T00:29:32.459Z,70.42
2017-04-25T00:30:47.456Z,71.08
2017-04-25T00:32:02.486Z,71.08
2017-04-25T00:33:17.023Z,71.56
2017-04-25T00:34:31.996Z,71.37
2017-04-25T00:35:46.003Z,71.66
2017-04-25T00:37:00.390Z,71.84
2017-04-25T00:38:14.344Z,72.03
2017-04-25T00:39:29.413Z,71.84
2017-04-25T00:40:44.944Z,70.79
2017-04-25T00:42:00.757Z,71.46
2017-04-25T00:43:16.901Z,71.08
2017-04-25T00:44:31.258Z,71.37
2017-04-25T00:45:45.815Z,71.27
2017-04-25T00:47:00.294Z,71.84
2017-04-25T00:48:14.473Z,71.84
2017-04-25T00:49:29.934Z,72.13
2017-04-25T00:50:44.517Z,72.7
2017-04-25T00:51:59.738Z,72.6
2017-04-25T00:53:14.689Z,73.27
2017-04-25T00:54:29.259Z,72.99
2017-04-25T00:55:43.501Z,73.14
2017-04-25T00:56:57.638Z,72.95
2017-04-25T00:58:12.287Z,73.46
2017-04-25T00:59:26.347Z,72.41
2017-04-25T01:00:40.600Z,73.65
2017-04-25T01:01:55.412Z,73.9
2017-04-25T01:03:09.811Z,72.99
2017-04-25T01:04:26.061Z,73.08
2017-04-25T01:05:40.342Z,73.23
2017-04-25T01:06:54.523Z,73.08
2017-04-25T01:08:09.339Z,73.04
2017-04-25T01:09:33.276Z,73.8
2017-04-25T01:10:48.381Z,73.84
2017-04-25T01:13:04.002Z,73.74
2017-04-25T01:14:18.392Z,73.71
2017-04-25T01:15:33.022Z,73.8
2017-04-25T01:16:47.866Z,73.8
2017-04-25T01:18:02.111Z,73.9
2017-04-25T01:19:16.192Z,73.71
2017-04-25T01:20:30.139Z,73.14
2017-04-25T01:21:44.307Z,73.8
2017-04-25T01:22:59.270Z,73.9
2017-04-25T01:24:13.337Z,74.18
2017-04-25T01:25:27.258Z,74.27
2017-04-25T01:26:41.346Z,74.47
2017-04-25T01:27:55.651Z,74.85
2017-04-25T01:29:10.737Z,74.27
2017-04-25T01:30:25.406Z,74.85
2017-04-25T01:31:39.526Z,75.42
2017-04-25T01:32:53.507Z,74.85
2017-04-25T01:34:08.619Z,75.42
2017-04-25T01:35:23.021Z,75.13
2017-04-25T01:36:37.313Z,75.42
2017-04-25T01:37:51.272Z,74.75
2017-04-25T01:39:05.843Z,74.37
2017-04-25T01:40:20.472Z,74.37
2017-04-25T01:41:35.001Z,74.56
2017-04-25T01:42:49.332Z,74.08
2017-04-25T01:44:03.753Z,74.27
2017-04-25T01:45:18.011Z,74.47
2017-04-25T01:46:32.462Z,74.85
2017-04-25T01:47:46.870Z,75.13
2017-04-25T01:49:01.338Z,75.51
2017-04-25T01:50:15.701Z,75.99
2017-04-25T01:51:30.209Z,75.99
2017-04-25T01:52:44.549Z,76.18
2017-04-25T01:53:58.716Z,76.08
2017-04-25T01:55:12.611Z,76.27
2017-04-25T01:56:26.815Z,76.46
2017-04-25T01:57:41.395Z,76.27
2017-04-25T01:58:55.485Z,76.75
2017-04-25T02:00:09.916Z,76.75
2017-04-25T02:01:24.304Z,76.75
2017-04-25T02:02:39.315Z,76.75
2017-04-25T02:03:53.784Z,76.99
2017-04-25T02:05:07.713Z,77.66
2017-04-25T02:06:22.610Z,77.75
2017-04-25T02:07:36.521Z,77.22
2017-04-25T02:08:50.700Z,77.18
2017-04-25T02:10:04.944Z,77.09
2017-04-25T02:11:19.337Z,77.56
2017-04-25T02:12:33.952Z,77.47
2017-04-25T02:13:48.320Z,77.37
2017-04-25T02:15:02.260Z,77.37
2017-04-25T02:16:16.697Z,77.84
2017-04-25T02:17:30.958Z,77.56
2017-04-25T02:18:45.796Z,77.66
2017-04-25T02:20:00.833Z,77.37
2017-04-25T02:21:15.234Z,77.56
2017-04-25T02:22:29.826Z,77.56
2017-04-25T02:23:44.396Z,77.28
2017-04-25T02:24:58.708Z,78.23
2017-04-25T02:26:12.806Z,77.66
2017-04-25T02:27:26.700Z,77.66
2017-04-25T02:28:41.114Z,78.13
2017-04-25T02:29:55.793Z,78.23
2017-04-25T02:31:10.212Z,78.23
2017-04-25T02:32:25.114Z,78.13
2017-04-25T02:33:40.299Z,78.13
2017-04-25T02:34:54.547Z,78.8
2017-04-25T02:36:08.975Z,78.75
2017-04-25T02:37:23.801Z,78.89
2017-04-25T02:38:38.429Z,78.32
2017-04-25T02:39:53.021Z,78.03
2017-04-25T02:41:07.460Z,77.75
2017-04-25T02:42:21.361Z,77.56
2017-04-25T02:43:36.191Z,77.47
2017-04-25T02:44:50.143Z,77.37
2017-04-25T02:46:04.187Z,77.47
2017-04-25T02:47:18.754Z,77.18
2017-04-25T02:48:32.828Z,77.47
2017-04-25T02:49:46.764Z,76.71
2017-04-25T02:51:01.551Z,77.09
2017-04-25T02:52:16.122Z,76.9
2017-04-25T02:53:30.887Z,77.56
2017-04-25T02:54:44.911Z,77.52
2017-04-25T02:55:59.021Z,77.75
2017-04-25T02:57:13.737Z,77.14
2017-04-25T02:58:28.086Z,77.75
2017-04-25T02:59:42.899Z,77.75
2017-04-25T03:00:57.296Z,77.75
2017-04-25T03:02:11.693Z,77.47
2017-04-25T03:03:26.484Z,76.99
2017-04-25T03:04:40.992Z,77.18
2017-04-25T03:05:55.799Z,77.09
2017-04-25T03:07:10.592Z,76.99
2017-04-25T03:08:25.764Z,76.61
2017-04-25T03:09:41.714Z,76.9
2017-04-25T03:10:55.987Z,76.71
2017-04-25T03:12:10.018Z,76.8
2017-04-25T03:13:41.720Z,76.71
2017-04-25T03:14:55.757Z,76.9
2017-04-25T03:16:09.715Z,76.9
2017-04-25T03:17:24.488Z,76.99
2017-04-25T03:18:38.870Z,77.56
2017-04-25T03:19:53.005Z,76.99
2017-04-25T03:21:06.972Z,77.47
2017-04-25T03:22:21.086Z,77.37
2017-04-25T03:23:35.053Z,77.71
2017-04-25T03:24:49.684Z,77.66
2017-04-25T03:26:04.025Z,78.28
2017-04-25T03:27:18.828Z,77.66
2017-04-25T03:28:32.882Z,77.28
2017-04-25T03:29:47.346Z,77.37
2017-04-25T03:31:01.616Z,77.56
2017-04-25T03:32:15.813Z,77.66
2017-04-25T03:33:30.779Z,77.37
2017-04-25T03:34:44.828Z,77.56
2017-04-25T03:35:59.068Z,77.47
2017-04-25T03:37:13.340Z,77.37
2017-04-25T03:38:27.230Z,76.71
2017-04-25T03:39:41.633Z,76.99
2017-04-25T03:40:55.942Z,76.71
2017-04-25T03:42:10.111Z,76.71
2017-04-25T03:43:24.781Z,76.61
2017-04-25T03:44:39.550Z,76.61
2017-04-25T03:45:54.212Z,76.32
2017-04-25T03:47:08.439Z,76.52
2017-04-25T03:48:22.391Z,76.23
2017-04-25T03:49:37.044Z,76.42
2017-04-25T03:50:51.248Z,76.42
2017-04-25T03:52:05.959Z,76.32
2017-04-25T03:53:20.325Z,76.42
2017-04-25T03:54:34.471Z,76.23
2017-04-25T03:55:49.077Z,76.04
2017-04-25T03:57:03.984Z,76.23
2017-04-25T03:58:18.099Z,75.89
2017-04-25T03:59:32.192Z,75.13
2017-04-25T04:00:46.512Z,75.6
2017-04-25T04:02:01.544Z,75.23
2017-04-25T04:03:16.037Z,75.32
2017-04-25T04:04:30.215Z,75.13
2017-04-25T04:05:46.006Z,74.56
2017-04-25T04:07:00.147Z,74.85
2017-04-25T04:08:15.160Z,74.94
2017-04-25T04:09:30.573Z,74.85
2017-04-25T04:10:44.975Z,74.75
2017-04-25T04:12:00.672Z,74.85
2017-04-25T04:13:14.812Z,74.85
2017-04-25T04:14:29.064Z,74.94
2017-04-25T04:15:43.525Z,75.42
2017-04-25T04:16:58.287Z,75.42
2017-04-25T04:18:12.586Z,75.42
2017-04-25T04:19:27.015Z,75.51
2017-04-25T04:20:41.147Z,75.51
2017-04-25T04:21:56.211Z,76.08
2017-04-25T04:23:10.722Z,75.99
2017-04-25T04:24:25.397Z,76.18
2017-04-25T04:25:39.870Z,76.46
2017-04-25T04:26:53.935Z,76.46
2017-04-25T04:28:08.359Z,75.99
2017-04-25T04:29:22.904Z,75.79
2017-04-25T04:30:37.182Z,76.18
2017-04-25T04:31:51.797Z,75.7
2017-04-25T04:33:06.273Z,75.79
2017-04-25T04:34:20.813Z,75.42
2017-04-25T04:35:34.778Z,74.85
2017-04-25T04:36:50.197Z,74.37
2017-04-25T04:38:04.546Z,74.47
2017-04-25T04:39:19.477Z,73.9
2017-04-25T04:40:34.529Z,73.23
2017-04-25T04:41:48.627Z,72.41
2017-04-25T04:43:02.632Z,72.22
2017-04-25T04:44:17.506Z,71.94
2017-04-25T04:45:33.783Z,71.27
2017-04-25T04:46:50.858Z,70.42
2017-04-25T04:48:18.062Z,70.13
2017-04-25T04:49:34.223Z,69.88
2017-04-25T04:50:49.180Z,69.12
2017-04-25T04:52:03.983Z,68.27
2017-04-25T04:53:18.962Z,68.21
2017-04-25T04:54:33.424Z,67.82
2017-04-25T04:55:47.505Z,66.87
2017-04-25T04:57:02.241Z,66.59
2017-04-25T04:58:17.866Z,66.68
2017-04-25T04:59:32.712Z,66.49
2017-04-25T05:00:46.959Z,66.2
2017-04-25T05:02:01.082Z,65.25
2017-04-25T05:03:15.909Z,65.92
2017-04-25T05:04:30.263Z,66.11
2017-04-25T05:05:44.654Z,66.02
2017-04-25T05:06:59.257Z,66.87
2017-04-25T05:08:14.056Z,66.78
2017-04-25T05:09:28.731Z,66.65
2017-04-25T05:10:43.872Z,67.22
2017-04-25T05:11:58.001Z,66.94
2017-04-25T05:13:12.067Z,66.65
2017-04-25T05:14:26.722Z,67.22
2017-04-25T05:15:42.405Z,66.55
2017-04-25T05:16:57.291Z,65.83
2017-04-25T05:18:11.925Z,65.73
2017-04-25T05:19:37.561Z,64.97
2017-04-25T05:20:52.929Z,64.21
2017-04-25T05:22:07.715Z,64.31
2017-04-25T05:23:52.294Z,63.2
2017-04-25T05:25:07.053Z,62.81
2017-04-25T05:26:21.037Z,62.24
2017-04-25T05:27:35.559Z,62.62
2017-04-25T05:28:50.101Z,62.85
2017-04-25T05:30:23.756Z,63.23
2017-04-25T05:31:38.644Z,62.85
2017-04-25T05:32:53.312Z,63.76
2017-04-25T05:34:07.508Z,63.57
2017-04-25T05:35:22.627Z,64.43
2017-04-25T05:36:38.033Z,64.34
2017-04-25T05:37:53.085Z,64.72
2017-04-25T05:39:07.688Z,65.38
2017-04-25T05:40:21.643Z,65.77
2017-04-25T05:41:35.886Z,64.72
2017-04-25T05:42:50.517Z,65.1
2017-04-25T05:44:04.783Z,65.19
2017-04-25T05:45:19.056Z,65.73
2017-04-25T05:46:33.841Z,65.83
2017-04-25T05:47:48.462Z,65.35
2017-04-25T05:49:03.813Z,65.25
2017-04-25T05:50:18.163Z,65.45
2017-04-25T05:51:32.306Z,65.54
2017-04-25T05:52:47.305Z,65.64
2017-04-25T05:54:02.215Z,65.45
2017-04-25T05:55:17.184Z,65.73
2017-04-25T05:56:31.649Z,65.35
2017-04-25T05:57:46.365Z,65.77
2017-04-25T05:59:00.853Z,65.38
2017-04-25T06:00:15.316Z,65.29
2017-04-25T06:01:30.048Z,64.34
2017-04-25T06:02:45.413Z,63.48
2017-04-25T06:04:00.559Z,63.96
2017-04-25T06:05:15.253Z,63.6
2017-04-25T06:06:30.087Z,62.75
2017-04-25T06:07:44.718Z,62.27
2017-04-25T06:09:00.287Z,61.07
2017-04-25T06:11:27.796Z,60.3
2017-04-25T06:12:42.497Z,60.49
2017-04-25T06:13:56.953Z,59.74
2017-04-25T06:15:11.983Z,60.52
2017-04-25T06:16:26.734Z,60.11
2017-04-25T06:17:42.274Z,59.95
2017-04-25T06:18:56.450Z,59.76
2017-04-25T06:20:11.825Z,59.28
2017-04-25T06:21:26.625Z,59.38
2017-04-25T06:22:40.921Z,58.62
2017-04-25T06:23:55.931Z,58.46
2017-04-25T06:25:10.377Z,57.79
2017-04-25T06:26:24.447Z,57.41
2017-04-25T06:27:38.794Z,57.89
2017-04-25T06:28:53.240Z,58.46
2017-04-25T06:30:07.601Z,59
2017-04-25T06:31:22.233Z,58.81
2017-04-25T06:32:36.198Z,59.28
2017-04-25T06:33:51.114Z,59.76
2017-04-25T06:35:05.893Z,59.76
2017-04-25T06:36:21.524Z,59.95
2017-04-25T06:37:36.152Z,60.43
2017-04-25T06:38:50.973Z,60.33
2017-04-25T06:40:06.097Z,61.38
2017-04-25T06:41:20.802Z,62.34
2017-04-25T06:42:36.809Z,62.62
2017-04-25T06:43:51.530Z,63.39
2017-04-25T06:45:13.565Z,64.43
2017-04-25T06:46:28.662Z,65.64
2017-04-25T06:47:42.961Z,66.21
2017-04-25T06:48:58.100Z,66.97
2017-04-25T06:50:12.812Z,67.93
2017-04-25T06:51:27.322Z,67.93
2017-04-25T06:52:42.113Z,68.3
2017-04-25T06:53:57.242Z,68.4
2017-04-25T06:55:11.267Z,68.12
2017-04-25T06:56:26.141Z,68.65
2017-04-25T06:57:40.836Z,69.54
2017-04-25T06:58:55.683Z,69.6
2017-04-25T07:00:10.013Z,69.99
2017-04-25T07:01:24.713Z,70.18
2017-04-25T07:02:39.024Z,70.37
2017-04-25T07:03:54.247Z,70.27
2017-04-25T07:05:15.184Z,70.27
2017-04-25T07:06:29.391Z,70.08
2017-04-25T07:07:44.297Z,70.37
2017-04-25T07:08:59.430Z,70.37
2017-04-25T07:10:15.075Z,70.75
2017-04-25T07:11:29.954Z,70.27
2017-04-25T07:12:44.026Z,69.89
2017-04-25T07:13:58.843Z,69.7
2017-04-25T07:15:13.561Z,69.99
2017-04-25T07:16:27.940Z,69.23
2017-04-25T07:17:42.538Z,69.23
2017-04-25T07:18:56.722Z,69.23
2017-04-25T07:20:11.012Z,69.6
2017-04-25T07:21:25.529Z,69.32
2017-04-25T07:22:40.367Z,69.32
2017-04-25T07:23:54.501Z,69.13
2017-04-25T07:25:08.953Z,70.08
2017-04-25T07:26:23.501Z,70.37
2017-04-25T07:27:37.447Z,71.03
2017-04-25T07:28:52.154Z,71.38
2017-04-25T07:30:06.122Z,71.67
2017-04-25T07:31:20.333Z,72.42
2017-04-25T07:32:35.195Z,72.24
2017-04-25T07:33:50.034Z,72.05
2017-04-25T07:35:04.535Z,72.14
2017-04-25T07:36:19.506Z,71.38
2017-04-25T07:37:34.433Z,71.67
2017-04-25T07:38:48.853Z,71.95
2017-04-25T07:40:03.538Z,72.05
2017-04-25T07:41:18.749Z,71.86
2017-04-25T07:42:33.662Z,72.52
2017-04-25T07:43:48.058Z,72.24
2017-04-25T07:45:03.272Z,71.09
2017-04-25T07:46:18.194Z,69.19
2017-04-25T07:47:33.281Z,68.01
2017-04-25T07:48:47.614Z,67.07
2017-04-25T07:50:02.141Z,66.78
2017-04-25T07:51:17.111Z,66.78
2017-04-25T07:52:31.768Z,65.73
2017-04-25T07:53:46.864Z,65.64
2017-04-25T07:55:01.756Z,65.35
2017-04-25T07:56:16.231Z,64.9
2017-04-25T07:57:31.075Z,64.43
2017-04-25T07:58:46.117Z,63.96
2017-04-25T08:00:00.684Z,63.48
2017-04-25T08:01:14.914Z,62.91
2017-04-25T08:02:29.548Z,62.78
2017-04-25T08:03:44.433Z,62.3
2017-04-25T08:04:58.774Z,63.35
2017-04-25T08:06:13.098Z,63.35
2017-04-25T08:07:27.565Z,63.07
2017-04-25T08:08:42.683Z,62.4
2017-04-25T08:09:57.548Z,62.88
2017-04-25T08:11:12.287Z,63.17
2017-04-25T08:12:27.029Z,63.64
2017-04-25T08:13:41.447Z,62.88
2017-04-25T08:14:55.578Z,63.07
2017-04-25T08:16:10.597Z,62.88
2017-04-25T08:17:25.925Z,63.73
2017-04-25T08:18:41.168Z,63.54
2017-04-25T08:19:55.528Z,62.97
2017-04-25T08:21:11.416Z,63.2
2017-04-25T08:22:26.154Z,63.73
2017-04-25T08:23:41.185Z,63.48
2017-04-25T08:24:55.870Z,63.64
2017-04-25T08:26:10.686Z,63.73
2017-04-25T08:27:25.176Z,64.02
2017-04-25T08:28:40.880Z,64.69
2017-04-25T08:29:54.965Z,64.31
2017-04-25T08:31:09.845Z,65.16
2017-04-25T08:32:24.631Z,64.78
2017-04-25T08:33:39.534Z,65.35
2017-04-25T08:34:54.009Z,65.83
2017-04-25T08:36:08.279Z,66.2
2017-04-25T08:37:22.814Z,66.02
2017-04-25T08:38:37.761Z,66.59
2017-04-25T08:39:52.627Z,67.07
2017-04-25T08:41:07.959Z,66.49
2017-04-25T08:42:25.107Z,66.2
2017-04-25T08:43:39.735Z,65.92
2017-04-25T08:44:54.511Z,65.54
2017-04-25T08:46:09.228Z,65.06
2017-04-25T08:47:24.132Z,64.21
2017-04-25T08:48:39.205Z,63.45
2017-04-25T08:49:53.974Z,63.73
2017-04-25T08:51:08.333Z,62.88
2017-04-25T08:52:22.485Z,62.21
2017-04-25T08:53:37.059Z,62.3
2017-04-25T08:54:51.835Z,62.4
2017-04-25T08:56:07.232Z,62.4
2017-04-25T08:57:22.749Z,62.4
2017-04-25T08:58:38.145Z,62.21
2017-04-25T08:59:53.448Z,62.59
2017-04-25T09:01:08.246Z,62.49
2017-04-25T09:02:23.255Z,62.97
2017-04-25T09:03:37.544Z,62.69
2017-04-25T09:04:52.015Z,62.88
2017-04-25T09:06:06.712Z,62.3
2017-04-25T09:07:20.993Z,62.4
2017-04-25T09:08:35.818Z,62.49
2017-04-25T09:09:51.070Z,62.15
2017-04-25T09:11:06.406Z,61.58
2017-04-25T09:12:20.952Z,61.77
2017-04-25T09:13:36.162Z,61.38
2017-04-25T09:14:50.991Z,61.67
2017-04-25T09:16:05.758Z,61.86
2017-04-25T09:17:20.111Z,61.29
2017-04-25T09:18:35.025Z,61.29
2017-04-25T09:19:49.439Z,61.77
2017-04-25T09:21:03.819Z,61.19
2017-04-25T09:22:18.724Z,61.48
2017-04-25T09:23:32.854Z,61.58
2017-04-25T09:24:47.422Z,61
2017-04-25T09:26:01.569Z,60.53
2017-04-25T09:27:16.815Z,60.24
2017-04-25T09:28:31.999Z,60.72
2017-04-25T09:29:47.037Z,60.18
2017-04-25T09:31:02.934Z,59.8
2017-04-25T09:32:18.139Z,59.89
2017-04-25T09:33:32.740Z,60.08
2017-04-25T09:34:47.060Z,59.61
2017-04-25T09:36:01.936Z,59.61
2017-04-25T09:37:16.421Z,59.13
2017-04-25T09:38:31.625Z,58.75
2017-04-25T09:39:46.092Z,57.99
2017-04-25T09:41:01.113Z,57.7
2017-04-25T09:42:15.625Z,57.8
2017-04-25T09:43:30.794Z,57.8
2017-04-25T09:44:46.065Z,57.6
2017-04-25T09:46:00.918Z,57.23
2017-04-25T09:47:14.998Z,56.75
2017-04-25T09:48:29.269Z,56.27
2017-04-25T09:49:44.114Z,55.99
2017-04-25T09:50:59.421Z,55.99
2017-04-25T09:52:13.729Z,55.73
2017-04-25T09:53:28.840Z,55.44
2017-04-25T09:54:43.337Z,54.59
2017-04-25T09:55:58.487Z,53.92
2017-04-25T09:57:13.325Z,53.06
2017-04-25T09:58:28.496Z,52.68
2017-04-25T09:59:44.034Z,52.59
2017-04-25T10:00:58.709Z,52.68
2017-04-25T10:02:13.116Z,52.3
2017-04-25T10:03:28.126Z,52.3
2017-04-25T10:04:42.730Z,51.92
2017-04-25T10:05:56.897Z,51.35
2017-04-25T10:07:11.701Z,51.45
2017-04-25T10:08:26.615Z,51.35
2017-04-25T10:09:41.269Z,50.97
2017-04-25T10:10:56.329Z,50.78
2017-04-25T10:12:10.886Z,50.97
2017-04-25T10:13:25.596Z,50.49
2017-04-25T10:14:40.524Z,49.54
2017-04-25T10:15:55.913Z,49.54
2017-04-25T10:17:11.138Z,49.56
2017-04-25T10:18:26.152Z,49.37
2017-04-25T10:19:40.171Z,49.08
2017-04-25T10:20:55.031Z,49.76
2017-04-25T10:22:10.268Z,49.28
2017-04-25T10:23:24.914Z,49.47
2017-04-25T10:24:39.533Z,48.42
2017-04-25T10:25:54.351Z,48.61
2017-04-25T10:27:10.030Z,48.23
2017-04-25T10:28:35.140Z,47.3
2017-04-25T10:29:50.550Z,47.58
2017-04-25T10:31:04.737Z,47.49
2017-04-25T10:32:19.577Z,46.25
2017-04-25T10:33:35.629Z,46.25
2017-04-25T10:34:49.933Z,46.25
2017-04-25T10:36:04.109Z,46.06
2017-04-25T10:37:18.481Z,45.97
2017-04-25T10:38:34.493Z,45.87
2017-04-25T10:39:49.189Z,46.23
2017-04-25T10:41:04.666Z,46.42
2017-04-25T10:42:19.820Z,46.34
2017-04-25T10:43:34.880Z,45.58
2017-04-25T10:44:49.693Z,44.92
2017-04-25T10:46:05.242Z,43.7
2017-04-25T10:47:19.941Z,42.46
2017-04-25T10:48:35.393Z,41.79
2017-04-25T10:49:49.708Z,42.53
2017-04-25T10:51:04.913Z,41.67
2017-04-25T10:52:19.294Z,42.41
2017-04-25T10:53:33.611Z,42.8
2017-04-25T10:54:48.015Z,42.82
2017-04-25T10:56:02.506Z,42.72
2017-04-25T10:57:16.638Z,41.67
2017-04-25T10:58:31.629Z,41.39
2017-04-25T10:59:47.288Z,40.91
2017-04-25T11:01:02.698Z,40.53
2017-04-25T11:02:17.350Z,39.76
2017-04-25T11:03:31.963Z,40.53
2017-04-25T11:04:46.696Z,39.95
2017-04-25T11:06:01.367Z,39.67
2017-04-25T11:07:16.383Z,39.84
2017-04-25T11:08:31.351Z,39.75
2017-04-25T11:09:46.034Z,39.84
2017-04-25T11:11:00.937Z,40.32
2017-04-25T11:12:15.345Z,40.53
2017-04-25T11:13:30.976Z,40.53
2017-04-25T11:14:46.408Z,41
2017-04-25T11:16:00.764Z,41
2017-04-25T11:17:15.724Z,40.83
2017-04-25T11:18:31.642Z,40.74
2017-04-25T11:19:46.065Z,40.93
2017-04-25T11:21:00.949Z,40.83
2017-04-25T11:22:15.096Z,40.55
2017-04-25T11:23:30.273Z,40.36
2017-04-25T11:24:45.303Z,40.36
2017-04-25T11:25:59.501Z,40.64
2017-04-25T11:27:52.666Z,40.64
2017-04-25T11:29:08.629Z,40.19
2017-04-25T11:30:22.905Z,40.37
2017-04-25T11:31:39.017Z,39.71
2017-04-25T11:32:53.869Z,39.81
2017-04-25T11:34:08.463Z,39.61
2017-04-25T11:35:23.878Z,39.71
2017-04-25T11:36:39.013Z,39.9
2017-04-25T11:37:53.832Z,40.57
2017-04-25T11:39:08.370Z,41.5
2017-04-25T11:40:22.358Z,40.93
2017-04-25T11:41:37.190Z,41.6
2017-04-25T11:43:03.965Z,41.24
2017-04-25T11:44:19.353Z,41.33
2017-04-25T11:45:34.257Z,41.91
2017-04-25T11:46:48.868Z,41.6
2017-04-25T11:48:04.339Z,42.27
2017-04-25T11:49:19.350Z,41.88
2017-04-25T11:50:34.548Z,41.98
2017-04-25T11:51:49.686Z,41.6
2017-04-25T11:53:04.499Z,41.69
2017-04-25T11:54:20.549Z,41.88
2017-04-25T11:55:36.350Z,41.96
2017-04-25T11:56:53.225Z,42.05
2017-04-25T11:58:07.403Z,41.67
2017-04-25T11:59:23.065Z,41.6
2017-04-25T12:00:37.254Z,41.86
2017-04-25T12:01:52.142Z,42.55
2017-04-25T12:03:06.995Z,43.03
2017-04-25T12:04:21.943Z,43.41
2017-04-25T12:05:37.584Z,42.36
2017-04-25T12:06:52.670Z,41.79
2017-04-25T12:08:07.340Z,41.88
2017-04-25T12:09:22.732Z,42.27
2017-04-25T12:10:37.480Z,42.36
2017-04-25T12:11:56.536Z,42.08
2017-04-25T12:13:11.584Z,41.81
2017-04-25T12:14:26.316Z,41.62
2017-04-25T12:15:41.078Z,41.81
2017-04-25T12:16:56.588Z,41.62
2017-04-25T12:18:11.863Z,40.86
2017-04-25T12:19:27.629Z,41.71
2017-04-25T12:20:44.637Z,41.81
2017-04-25T12:21:59.206Z,41.81
2017-04-25T12:23:13.786Z,41.91
2017-04-25T12:24:28.894Z,41.71
2017-04-25T12:25:43.327Z,41.71
2017-04-25T12:26:58.544Z,42.48
2017-04-25T12:28:13.750Z,42.84
2017-04-25T12:29:28.731Z,43.13
2017-04-25T12:30:42.755Z,43.6
2017-04-25T12:31:58.061Z,44.17
2017-04-25T12:33:13.281Z,44.65
2017-04-25T12:34:28.149Z,43.79
2017-04-25T12:35:43.388Z,44.65
2017-04-25T12:36:57.832Z,44.17
2017-04-25T12:38:12.555Z,43.79
2017-04-25T12:39:28.104Z,44.46
2017-04-25T12:40:42.888Z,44.38
2017-04-25T12:41:58.131Z,44.37
2017-04-25T12:43:12.892Z,44.1
2017-04-25T12:44:27.537Z,43.72
2017-04-25T12:45:42.066Z,43.62
2017-04-25T12:46:57.000Z,43.43
2017-04-25T12:48:11.553Z,43.53
2017-04-25T12:49:25.894Z,43.82
2017-04-25T12:50:41.292Z,44.58
2017-04-25T12:51:56.632Z,44.38
2017-04-25T12:53:11.883Z,43.91
2017-04-25T12:54:27.795Z,44.58
2017-04-25T12:55:42.379Z,44.27
2017-04-25T12:56:58.647Z,45.03
2017-04-25T12:58:13.446Z,45.7
2017-04-25T12:59:53.706Z,45.61
2017-04-25T13:01:30.444Z,45.13
2017-04-25T13:02:46.281Z,44.48
2017-04-25T13:04:01.846Z,44.38
2017-04-25T13:05:16.845Z,44.58
2017-04-25T13:06:32.533Z,44.58
2017-04-25T13:07:48.017Z,44.48
2017-04-25T13:09:02.389Z,44.48
2017-04-25T13:10:31.533Z,44.48
2017-04-25T13:11:45.867Z,44.48
2017-04-25T13:13:18.757Z,44.41
2017-04-25T13:14:33.901Z,44.51
2017-04-25T13:15:49.208Z,45.84
2017-04-25T13:17:04.235Z,45.53
2017-04-25T13:18:18.647Z,44.7
2017-04-25T13:19:33.832Z,44.6
2017-04-25T13:20:48.705Z,44.6
2017-04-25T13:22:04.221Z,43.65
2017-04-25T13:23:19.195Z,43.65
2017-04-25T13:24:34.039Z,43.74
2017-04-25T13:25:49.530Z,43.57
2017-04-25T13:27:04.609Z,42.9
2017-04-25T13:28:19.710Z,42.61
2017-04-25T13:29:34.931Z,42.52
2017-04-25T13:30:49.918Z,42.11
2017-04-25T13:32:14.528Z,41.85
2017-04-25T13:33:29.431Z,41.56
2017-04-25T13:34:44.134Z,41.09
2017-04-25T13:35:59.605Z,41.18
2017-04-25T13:38:49.587Z,40.52
2017-04-25T13:40:05.496Z,40.7
2017-04-25T13:41:20.510Z,41.16
2017-04-25T13:42:36.403Z,41.16
2017-04-25T13:43:51.313Z,40.97
2017-04-25T13:45:06.851Z,40.49
2017-04-25T13:46:21.407Z,39.64
2017-04-25T13:47:36.590Z,39.15
2017-04-25T13:48:53.147Z,39.08
2017-04-25T13:50:08.588Z,38.32
2017-04-25T13:51:22.950Z,37.07
2017-04-25T13:52:39.540Z,35.64
2017-04-25T13:53:55.345Z,33.44
2017-04-25T13:55:12.285Z,33.91
2017-04-25T13:56:27.760Z,33.25
2017-04-25T13:57:42.583Z,33.25
2017-04-25T13:58:57.141Z,32.39
2017-04-25T14:00:12.375Z,32.49
2017-04-25T14:01:27.792Z,32.18
2017-04-25T14:02:42.330Z,32.57
2017-04-25T14:03:57.730Z,32.47
2017-04-25T14:05:12.774Z,32.36
2017-04-25T14:06:28.313Z,32.36
2017-04-25T14:07:45.541Z,32.07
2017-04-25T14:09:07.580Z,32.07
2017-04-25T14:10:21.656Z,31.98
2017-04-25T14:12:07.582Z,31.5
2017-04-25T14:13:23.756Z,31.4
2017-04-25T14:14:38.554Z,31.98
2017-04-25T14:15:53.539Z,31.88
2017-04-25T14:17:08.087Z,32.45
2017-04-25T14:18:23.017Z,31.69
2017-04-25T14:19:36.982Z,31.6
2017-04-25T14:20:52.281Z,31.12
2017-04-25T14:22:06.846Z,31.31
2017-04-25T14:23:21.759Z,31.21
2017-04-25T14:24:36.390Z,31.31
2017-04-25T14:25:51.286Z,31.4
2017-04-25T14:27:05.370Z,32.07
2017-04-25T14:28:21.948Z,32.55
2017-04-25T14:29:36.809Z,31.31
2017-04-25T14:30:51.627Z,30.83
2017-04-25T14:32:06.159Z,30.16
2017-04-25T14:33:20.630Z,28.83
2017-04-25T14:34:35.692Z,29.21
2017-04-25T14:35:50.816Z,29.02
2017-04-25T14:37:04.878Z,29.78
2017-04-25T14:38:19.786Z,28.83
2017-04-25T14:39:34.188Z,27.97
2017-04-25T14:40:48.872Z,27.39
2017-04-25T14:42:03.793Z,27.11
2017-04-25T14:43:18.801Z,27.59
2017-04-25T14:44:33.328Z,27.01
2017-04-25T14:45:47.906Z,27.11
2017-04-25T14:47:02.172Z,26.34
2017-04-25T14:48:16.752Z,26.44
2017-04-25T14:49:33.631Z,26.54
2017-04-25T14:50:54.366Z,26.25
2017-04-25T14:52:10.070Z,26.15
2017-04-25T14:53:31.507Z,26.44
2017-04-25T14:54:47.453Z,26.54
2017-04-25T14:56:02.437Z,26.73
2017-04-25T14:57:20.555Z,25.49
2017-04-25T14:58:37.409Z,24.91
2017-04-25T14:59:52.571Z,25.29
2017-04-25T15:01:08.985Z,25.2
2017-04-25T15:02:23.918Z,25.49
2017-04-25T15:03:40.665Z,25.67
2017-04-25T15:04:55.164Z,25.85
2017-04-25T15:06:10.835Z,26.04
2017-04-25T15:07:25.788Z,26.33
2017-04-25T15:08:40.971Z,26.14
2017-04-25T15:09:56.128Z,26.33
2017-04-25T15:11:11.890Z,26.06
2017-04-25T15:12:26.135Z,25.96
2017-04-25T15:13:40.914Z,25.77
2017-04-25T15:15:10.167Z,25.88
2017-04-25T15:16:26.329Z,25.4
2017-04-25T15:17:41.558Z,25.88
2017-04-25T15:18:57.716Z,25.5
2017-04-25T15:20:13.492Z,25.03
2017-04-25T15:21:29.548Z,24.84
2017-04-25T15:22:45.405Z,25.13
2017-04-25T15:24:00.313Z,24.84
2017-04-25T15:25:16.300Z,25.12
2017-04-25T15:26:32.385Z,25.59
2017-04-25T15:27:50.436Z,25.79
2017-04-25T15:29:06.872Z,26.15
2017-04-25T15:30:23.391Z,27.01
2017-04-25T15:31:37.863Z,27.01
2017-04-25T15:32:52.957Z,27.11
2017-04-25T15:34:08.648Z,26.92
2017-04-25T15:35:25.267Z,26.73
2017-04-25T15:36:41.700Z,27.68
2017-04-25T15:37:57.149Z,27.3
2017-04-25T15:39:14.137Z,26.34
2017-04-25T15:40:28.574Z,26.34
2017-04-25T15:41:43.235Z,26.34
2017-04-25T15:42:59.485Z,26.25
2017-04-25T15:44:15.052Z,26.25
2017-04-25T15:45:30.187Z,26.25
2017-04-25T15:46:45.435Z,26.34
2017-04-25T15:48:00.622Z,26.92
2017-04-25T15:49:15.700Z,27.49
2017-04-25T15:50:31.438Z,27.3
2017-04-25T15:51:48.003Z,26.44
2017-04-25T15:53:03.775Z,26.73
2017-04-25T15:54:19.618Z,26.34
2017-04-25T15:55:36.520Z,26.34
2017-04-25T15:56:52.447Z,27.11
2017-04-25T15:58:06.975Z,27.3
2017-04-25T15:59:22.176Z,27.01
2017-04-25T16:00:37.933Z,27.38
2017-04-25T16:02:38.034Z,26.43
2017-04-25T16:03:53.595Z,27.28
2017-04-25T16:05:08.487Z,26.62
2017-04-25T16:06:23.829Z,26.62
2017-04-25T16:07:38.982Z,26.33
2017-04-25T16:08:55.138Z,26.82
2017-04-25T16:10:09.946Z,27.39
2017-04-25T16:12:01.321Z,26.34
2017-04-25T16:13:16.026Z,26.25
2017-04-25T16:14:32.006Z,26.63
2017-04-25T16:15:48.100Z,26.25
2017-04-25T16:17:04.626Z,26.44
2017-04-25T16:18:21.113Z,26.82